Аэропорт: Угольный. Анадырь

ICAO: UHMA

METAR:
2022-06-26 11:00:00
UHMA 261100Z 08005MPS 9999 SCT004 BKN022 06/05 Q1006 R01/////// NOSIG RMK TDZ R01/08005G07MPS END R01/09006G09MPS MT OBSC QFE750/1001
METAR:
2022-06-26 07:57:00
TAF UHMA 260757Z 2609/2709 14005G10MPS 9999 SCT005 BKN020 TEMPO 2609/2624 10010G15MPS 3100 BR BKN003 TEMPO 2700/2709 10010G15MPS 5000 -SHRA SCT003 BKN010CB